Emmet, South Dakota
Current Conditions -  °F | °C
As of 7:15 AM on Monday 22 Dec 2014 (Local Time) from KYKN Reporting Station
Clear Clear  
Wind Chill: 39°   Ceiling: Unl
Heat Index: 39°   Visibility: 4mi
Dew Point: 37°   Wind: 3mph
Humidity: 93%   Direction: 210°SSW
Pressure: 29.47"   Gusts: NA
Location:  43.1048°N, 96.7944°W
Report Text: KYKN 221315Z AUTO 21003KT 4SM CLR 04/03 A2947 RMK AO1
Loading
Personal Weather Stations






























Interactive Weather Map New forecast layout! Learn more

10-Day Weather Forecast

Advertisements
Track Severe Weather on mobile